sensor_id;sensor_type;location;lat;lon;timestamp;pressure;altitude;pressure_sealevel;temperature;humidity
43217;BME280;71549;42.686;23.300;2024-03-06T00:01:03;94459.78;;;22.02;33.78
43217;BME280;71549;42.686;23.300;2024-03-06T00:03:04;94460.97;;;22.04;33.53
43217;BME280;71549;42.686;23.300;2024-03-06T00:05:06;94462.72;;;22.13;33.29
43217;BME280;71549;42.686;23.300;2024-03-06T00:07:08;94454.22;;;22.11;33.40
43217;BME280;71549;42.686;23.300;2024-03-06T00:09:10;94462.28;;;22.11;33.64
43217;BME280;71549;42.686;23.300;2024-03-06T00:11:12;94456.13;;;22.10;33.37
43217;BME280;71549;42.686;23.300;2024-03-06T00:13:14;94455.34;;;22.10;33.65
43217;BME280;71549;42.686;23.300;2024-03-06T00:15:15;94463.53;;;22.13;33.56
43217;BME280;71549;42.686;23.300;2024-03-06T00:17:17;94455.06;;;22.15;33.28
43217;BME280;71549;42.686;23.300;2024-03-06T00:19:19;94456.47;;;22.08;33.35
43217;BME280;71549;42.686;23.300;2024-03-06T00:21:21;94458.38;;;22.08;33.59
43217;BME280;71549;42.686;23.300;2024-03-06T00:23:22;94456.47;;;22.08;33.69
43217;BME280;71549;42.686;23.300;2024-03-06T00:25:24;94456.03;;;22.06;33.55
43217;BME280;71549;42.686;23.300;2024-03-06T00:27:27;94455.34;;;22.10;33.68
43217;BME280;71549;42.686;23.300;2024-03-06T00:29:30;94451.50;;;22.11;33.36
43217;BME280;71549;42.686;23.300;2024-03-06T00:31:31;94460.41;;;22.11;33.58
43217;BME280;71549;42.686;23.300;2024-03-06T00:33:33;94455.00;;;22.11;33.38
43217;BME280;71549;42.686;23.300;2024-03-06T00:35:37;94458.63;;;22.19;33.32
43217;BME280;71549;42.686;23.300;2024-03-06T00:37:38;94459.34;;;22.16;33.28
43217;BME280;71549;42.686;23.300;2024-03-06T00:39:41;94460.47;;;22.15;33.53
43217;BME280;71549;42.686;23.300;2024-03-06T00:41:44;94460.84;;;22.13;33.31
43217;BME280;71549;42.686;23.300;2024-03-06T00:43:48;94454.13;;;22.07;33.41
43217;BME280;71549;42.686;23.300;2024-03-06T00:45:48;94459.53;;;22.07;33.45
43217;BME280;71549;42.686;23.300;2024-03-06T00:47:50;94455.69;;;22.08;33.37
43217;BME280;71549;42.686;23.300;2024-03-06T00:49:52;94463.00;;;22.07;33.38
43217;BME280;71549;42.686;23.300;2024-03-06T00:51:54;94460.41;;;22.11;33.43
43217;BME280;71549;42.686;23.300;2024-03-06T00:53:55;94453.09;;;22.12;33.51
43217;BME280;71549;42.686;23.300;2024-03-06T00:55:59;94455.88;;;22.15;33.28
43217;BME280;71549;42.686;23.300;2024-03-06T00:57:59;94462.13;;;22.19;33.09
43217;BME280;71549;42.686;23.300;2024-03-06T01:00:03;94457.09;;;22.18;33.20
43217;BME280;71549;42.686;23.300;2024-03-06T01:02:06;94458.56;;;22.15;33.38
43217;BME280;71549;42.686;23.300;2024-03-06T01:04:08;94461.28;;;22.15;33.23
43217;BME280;71549;42.686;23.300;2024-03-06T01:06:10;94465.19;;;22.18;33.44
43217;BME280;71549;42.686;23.300;2024-03-06T01:08:12;94468.31;;;22.20;33.38
43217;BME280;71549;42.686;23.300;2024-03-06T01:10:15;94468.66;;;22.18;33.19
43217;BME280;71549;42.686;23.300;2024-03-06T01:12:17;94463.59;;;22.17;33.17
43217;BME280;71549;42.686;23.300;2024-03-06T01:14:18;94465.94;;;22.18;33.01
43217;BME280;71549;42.686;23.300;2024-03-06T01:16:22;94471.34;;;22.18;33.19
43217;BME280;71549;42.686;23.300;2024-03-06T01:18:24;94464.75;;;22.16;33.14
43217;BME280;71549;42.686;23.300;2024-03-06T01:20:25;94463.16;;;22.15;33.27
43217;BME280;71549;42.686;23.300;2024-03-06T01:22:27;94455.44;;;22.13;33.09
43217;BME280;71549;42.686;23.300;2024-03-06T01:24:29;94460.47;;;22.15;33.16
43217;BME280;71549;42.686;23.300;2024-03-06T01:26:30;94463.16;;;22.15;33.44
43217;BME280;71549;42.686;23.300;2024-03-06T01:28:31;94451.94;;;22.13;33.49
43217;BME280;71549;42.686;23.300;2024-03-06T01:30:33;94460.03;;;22.13;33.22
43217;BME280;71549;42.686;23.300;2024-03-06T01:32:36;94459.00;;;22.17;33.10
43217;BME280;71549;42.686;23.300;2024-03-06T01:34:38;94457.78;;;22.15;33.15
43217;BME280;71549;42.686;23.300;2024-03-06T01:36:40;94463.16;;;22.15;33.24
43217;BME280;71549;42.686;23.300;2024-03-06T01:38:42;94465.84;;;22.15;33.22
43217;BME280;71549;42.686;23.300;2024-03-06T01:40:45;94458.19;;;22.17;33.30
43217;BME280;71549;42.686;23.300;2024-03-06T01:42:47;94457.44;;;22.16;33.41
43217;BME280;71549;42.686;23.300;2024-03-06T01:44:48;94450.56;;;22.19;33.14
43217;BME280;71549;42.686;23.300;2024-03-06T01:46:50;94430.13;;;22.02;33.34
43217;BME280;71549;42.686;23.300;2024-03-06T01:48:52;94457.78;;;22.15;33.42
43217;BME280;71549;42.686;23.300;2024-03-06T01:50:55;94451.16;;;22.12;33.50
43217;BME280;71549;42.686;23.300;2024-03-06T01:52:56;94455.25;;;22.06;33.25
43217;BME280;71549;42.686;23.300;2024-03-06T01:54:58;94451.69;;;22.02;33.52
43217;BME280;71549;42.686;23.300;2024-03-06T01:56:58;94451.53;;;21.95;33.29
43217;BME280;71549;42.686;23.300;2024-03-06T01:59:02;94457.25;;;21.93;33.35
43217;BME280;71549;42.686;23.300;2024-03-06T02:01:04;94464.63;;;21.96;33.46
43217;BME280;71549;42.686;23.300;2024-03-06T02:03:06;94460.03;;;22.13;33.44
43217;BME280;71549;42.686;23.300;2024-03-06T02:05:09;94465.16;;;22.02;33.72
43217;BME280;71549;42.686;23.300;2024-03-06T02:07:11;94465.00;;;21.95;33.90
43217;BME280;71549;42.686;23.300;2024-03-06T02:09:14;94470.63;;;21.90;34.04
43217;BME280;71549;42.686;23.300;2024-03-06T02:11:15;94466.81;;;21.91;34.31
43217;BME280;71549;42.686;23.300;2024-03-06T02:13:17;94469.41;;;21.87;34.28
43217;BME280;71549;42.686;23.300;2024-03-06T02:15:19;94467.50;;;21.87;34.31
43217;BME280;71549;42.686;23.300;2024-03-06T02:17:20;94471.34;;;21.86;34.33
43217;BME280;71549;42.686;23.300;2024-03-06T02:19:22;94472.78;;;21.84;34.25
43217;BME280;71549;42.686;23.300;2024-03-06T02:21:25;94476.97;;;21.81;33.96
43217;BME280;71549;42.686;23.300;2024-03-06T02:23:27;94483.84;;;21.79;34.27
43217;BME280;71549;42.686;23.300;2024-03-06T02:25:29;94478.78;;;21.77;33.96
43217;BME280;71549;42.686;23.300;2024-03-06T02:27:30;94480.69;;;21.77;33.82
43217;BME280;71549;42.686;23.300;2024-03-06T02:29:32;94485.75;;;21.78;34.09
43217;BME280;71549;42.686;23.300;2024-03-06T02:31:34;94487.56;;;21.74;34.24
43217;BME280;71549;42.686;23.300;2024-03-06T02:33:36;94489.47;;;21.74;34.24
43217;BME280;71549;42.686;23.300;2024-03-06T02:35:38;94491.03;;;21.75;34.24
43217;BME280;71549;42.686;23.300;2024-03-06T02:37:42;94496.75;;;21.73;34.18
43217;BME280;71549;42.686;23.300;2024-03-06T02:39:44;94498.25;;;21.71;33.86
43217;BME280;71549;42.686;23.300;2024-03-06T02:41:45;94502.50;;;21.72;34.24
43217;BME280;71549;42.686;23.300;2024-03-06T02:43:47;94492.53;;;21.72;33.98
43217;BME280;71549;42.686;23.300;2024-03-06T02:45:49;94497.97;;;21.76;34.24
43217;BME280;71549;42.686;23.300;2024-03-06T02:47:49;94500.66;;;21.76;34.04
43217;BME280;71549;42.686;23.300;2024-03-06T02:49:51;94497.09;;;21.72;34.29
43217;BME280;71549;42.686;23.300;2024-03-06T02:51:53;94483.63;;;21.72;33.92
43217;BME280;71549;42.686;23.300;2024-03-06T02:53:56;94493.63;;;21.71;34.06
43217;BME280;71549;42.686;23.300;2024-03-06T02:55:57;94487.47;;;21.71;34.00
43217;BME280;71549;42.686;23.300;2024-03-06T02:58:01;94494.34;;;21.68;34.13
43217;BME280;71549;42.686;23.300;2024-03-06T03:00:03;94497.38;;;21.66;34.19
43217;BME280;71549;42.686;23.300;2024-03-06T03:02:05;94498.47;;;21.65;34.07
43217;BME280;71549;42.686;23.300;2024-03-06T03:04:07;94488.84;;;21.64;33.79
43217;BME280;71549;42.686;23.300;2024-03-06T03:06:09;94498.47;;;21.65;34.36
43217;BME280;71549;42.686;23.300;2024-03-06T03:08:10;94498.03;;;21.63;34.22
43217;BME280;71549;42.686;23.300;2024-03-06T03:10:14;94498.41;;;21.62;33.75
43217;BME280;71549;42.686;23.300;2024-03-06T03:12:16;94498.41;;;21.62;33.62
43217;BME280;71549;42.686;23.300;2024-03-06T03:14:18;94495.34;;;21.63;34.01
43217;BME280;71549;42.686;23.300;2024-03-06T03:16:19;94496.50;;;21.62;33.58
43217;BME280;71549;42.686;23.300;2024-03-06T03:18:21;94496.03;;;21.60;33.83
43217;BME280;71549;42.686;23.300;2024-03-06T03:20:23;94502.53;;;21.59;33.79
43217;BME280;71549;42.686;23.300;2024-03-06T03:22:25;94498.41;;;21.62;33.80
43217;BME280;71549;42.686;23.300;2024-03-06T03:24:28;94511.06;;;21.61;33.69
43217;BME280;71549;42.686;23.300;2024-03-06T03:26:31;94500.28;;;21.61;33.97
43217;BME280;71549;42.686;23.300;2024-03-06T03:28:33;94502.53;;;21.59;33.68
43217;BME280;71549;42.686;23.300;2024-03-06T03:30:34;94508.28;;;21.58;33.95
43217;BME280;71549;42.686;23.300;2024-03-06T03:32:36;94506.72;;;21.57;33.64
43217;BME280;71549;42.686;23.300;2024-03-06T03:34:38;94513.31;;;21.59;33.98
43217;BME280;71549;42.686;23.300;2024-03-06T03:36:40;94512.53;;;21.59;33.92
43217;BME280;71549;42.686;23.300;2024-03-06T03:38:42;94512.88;;;21.57;34.00
43217;BME280;71549;42.686;23.300;2024-03-06T03:40:44;94514.78;;;21.57;33.92
43217;BME280;71549;42.686;23.300;2024-03-06T03:42:47;94512.44;;;21.55;34.17
43217;BME280;71549;42.686;23.300;2024-03-06T03:44:49;94509.31;;;21.53;33.97
43217;BME280;71549;42.686;23.300;2024-03-06T03:46:51;94507.41;;;21.54;34.04
43217;BME280;71549;42.686;23.300;2024-03-06T03:48:52;94513.13;;;21.52;34.01
43217;BME280;71549;42.686;23.300;2024-03-06T03:50:54;94513.91;;;21.53;34.13
43217;BME280;71549;42.686;23.300;2024-03-06T03:52:55;94507.75;;;21.52;33.95
43217;BME280;71549;42.686;23.300;2024-03-06T03:54:58;94510.44;;;21.52;33.80
43217;BME280;71549;42.686;23.300;2024-03-06T03:56:59;94515.50;;;21.54;33.84
43217;BME280;71549;42.686;23.300;2024-03-06T03:59:03;94521.66;;;21.54;33.84
43217;BME280;71549;42.686;23.300;2024-03-06T04:01:03;94515.84;;;21.52;33.86
43217;BME280;71549;42.686;23.300;2024-03-06T04:03:05;94523.91;;;21.52;33.73
43217;BME280;71549;42.686;23.300;2024-03-06T04:05:07;94519.63;;;21.51;34.00
43217;BME280;71549;42.686;23.300;2024-03-06T04:07:09;94521.56;;;21.51;34.14
43217;BME280;71549;42.686;23.300;2024-03-06T04:09:11;94519.19;;;21.49;34.09
43217;BME280;71549;42.686;23.300;2024-03-06T04:11:14;94528.06;;;21.50;34.24
43217;BME280;71549;42.686;23.300;2024-03-06T04:13:17;94521.56;;;21.51;34.07
43217;BME280;71549;42.686;23.300;2024-03-06T04:15:22;94525.38;;;21.50;34.06
43217;BME280;71549;42.686;23.300;2024-03-06T04:17:23;94529.53;;;21.47;33.89
43217;BME280;71549;42.686;23.300;2024-03-06T04:19:25;94534.13;;;21.46;34.23
43217;BME280;71549;42.686;23.300;2024-03-06T04:21:27;94536.50;;;21.48;34.16
43217;BME280;71549;42.686;23.300;2024-03-06T04:23:28;94534.56;;;21.49;34.30
43217;BME280;71549;42.686;23.300;2024-03-06T04:25:30;94536.81;;;21.46;34.53
43217;BME280;71549;42.686;23.300;2024-03-06T04:27:32;94542.53;;;21.45;34.30
43217;BME280;71549;42.686;23.300;2024-03-06T04:29:34;94548.28;;;21.43;34.90
43217;BME280;71549;42.686;23.300;2024-03-06T04:31:37;94551.75;;;21.44;33.89
43217;BME280;71549;42.686;23.300;2024-03-06T04:33:40;94549.41;;;21.42;34.30
43217;BME280;71549;42.686;23.300;2024-03-06T04:35:41;94550.50;;;21.41;34.43
43217;BME280;71549;42.686;23.300;2024-03-06T04:37:43;94551.28;;;21.42;34.34
43217;BME280;71549;42.686;23.300;2024-03-06T04:39:45;94554.31;;;21.40;34.01
43217;BME280;71549;42.686;23.300;2024-03-06T04:41:45;94553.97;;;21.42;34.20
43217;BME280;71549;42.686;23.300;2024-03-06T04:43:47;94551.63;;;21.40;34.10
43217;BME280;71549;42.686;23.300;2024-03-06T04:45:50;94557.78;;;21.41;33.91
43217;BME280;71549;42.686;23.300;2024-03-06T04:47:53;94562.38;;;21.40;34.43
43217;BME280;71549;42.686;23.300;2024-03-06T04:49:54;94560.94;;;21.43;34.06
43217;BME280;71549;42.686;23.300;2024-03-06T04:51:55;94558.25;;;21.43;33.89
43217;BME280;71549;42.686;23.300;2024-03-06T04:53:57;94560.94;;;21.43;33.89
43217;BME280;71549;42.686;23.300;2024-03-06T04:55:59;94554.78;;;21.42;34.06
43217;BME280;71549;42.686;23.300;2024-03-06T04:58:00;94561.75;;;21.43;34.12
43217;BME280;71549;42.686;23.300;2024-03-06T05:00:02;94564.09;;;21.45;34.22
43217;BME280;71549;42.686;23.300;2024-03-06T05:02:06;94565.66;;;21.46;33.96
43217;BME280;71549;42.686;23.300;2024-03-06T05:04:10;94564.53;;;21.47;33.98
43217;BME280;71549;42.686;23.300;2024-03-06T05:06:12;94564.97;;;21.49;33.93
43217;BME280;71549;42.686;23.300;2024-03-06T05:08:13;94574.19;;;21.48;34.03
43217;BME280;71549;42.686;23.300;2024-03-06T05:10:15;94568.03;;;21.48;34.14
43217;BME280;71549;42.686;23.300;2024-03-06T05:12:16;94572.59;;;21.47;34.15
43217;BME280;71549;42.686;23.300;2024-03-06T05:14:18;94574.06;;;21.44;34.08
43217;BME280;71549;42.686;23.300;2024-03-06T05:16:20;94574.41;;;21.43;34.25
43217;BME280;71549;42.686;23.300;2024-03-06T05:18:23;94574.31;;;21.39;34.29
43217;BME280;71549;42.686;23.300;2024-03-06T05:20:27;94573.50;;;21.39;34.19
43217;BME280;71549;42.686;23.300;2024-03-06T05:22:31;94566.22;;;21.39;34.17
43217;BME280;71549;42.686;23.300;2024-03-06T05:24:33;94572.38;;;21.40;34.24
43217;BME280;71549;42.686;23.300;2024-03-06T05:26:33;94571.94;;;21.38;34.16
43217;BME280;71549;42.686;23.300;2024-03-06T05:28:36;94576.19;;;21.39;34.29
43217;BME280;71549;42.686;23.300;2024-03-06T05:30:38;94579.69;;;21.39;34.39
43217;BME280;71549;42.686;23.300;2024-03-06T05:32:39;94577.78;;;21.40;34.28
43217;BME280;71549;42.686;23.300;2024-03-06T05:34:41;94582.38;;;21.39;34.48
43217;BME280;71549;42.686;23.300;2024-03-06T05:36:43;94586.19;;;21.38;34.25
43217;BME280;71549;42.686;23.300;2024-03-06T05:38:45;94589.66;;;21.39;34.26
43217;BME280;71549;42.686;23.300;2024-03-06T05:40:48;94585.06;;;21.39;34.08
43217;BME280;71549;42.686;23.300;2024-03-06T05:42:49;94580.47;;;21.40;34.24
43217;BME280;71549;42.686;23.300;2024-03-06T05:44:51;94589.31;;;21.40;34.22
43217;BME280;71549;42.686;23.300;2024-03-06T05:46:56;94589.47;;;21.44;34.33
43217;BME280;71549;42.686;23.300;2024-03-06T05:48:58;94594.38;;;21.42;34.28
43217;BME280;71549;42.686;23.300;2024-03-06T05:51:01;94595.47;;;21.41;34.47
43217;BME280;71549;42.686;23.300;2024-03-06T05:53:05;94595.19;;;21.42;34.20
43217;BME280;71549;42.686;23.300;2024-03-06T05:55:07;94596.28;;;21.41;34.22
43217;BME280;71549;42.686;23.300;2024-03-06T05:57:08;94596.94;;;21.51;34.24
43217;BME280;71549;42.686;23.300;2024-03-06T05:59:10;94607.38;;;21.52;34.21
43217;BME280;71549;42.686;23.300;2024-03-06T06:01:12;94598.88;;;21.50;34.55
43217;BME280;71549;42.686;23.300;2024-03-06T06:03:14;94602.22;;;21.47;34.25
43217;BME280;71549;42.686;23.300;2024-03-06T06:05:15;94605.63;;;21.44;34.20
43217;BME280;71549;42.686;23.300;2024-03-06T06:07:19;94605.94;;;21.42;34.00
43217;BME280;71549;42.686;23.300;2024-03-06T06:09:23;94607.06;;;21.41;34.17
43217;BME280;71549;42.686;23.300;2024-03-06T06:11:24;94608.16;;;21.40;34.20
43217;BME280;71549;42.686;23.300;2024-03-06T06:13:26;94612.78;;;21.40;34.18
43217;BME280;71549;42.686;23.300;2024-03-06T06:15:28;94610.84;;;21.40;34.61
43217;BME280;71549;42.686;23.300;2024-03-06T06:17:30;94616.25;;;21.40;34.31
43217;BME280;71549;42.686;23.300;2024-03-06T06:19:30;94611.63;;;21.41;34.34
43217;BME280;71549;42.686;23.300;2024-03-06T06:21:32;94612.78;;;21.40;34.20
43217;BME280;71549;42.686;23.300;2024-03-06T06:23:35;94609.75;;;21.41;34.10
43217;BME280;71549;42.686;23.300;2024-03-06T06:25:39;94603.91;;;21.52;33.80
43217;BME280;71549;42.686;23.300;2024-03-06T06:27:40;94600.53;;;21.55;34.17
43217;BME280;71549;42.686;23.300;2024-03-06T06:29:42;94601.66;;;21.54;34.01
43217;BME280;71549;42.686;23.300;2024-03-06T06:31:44;94603.88;;;21.64;34.24
43217;BME280;71549;42.686;23.300;2024-03-06T06:33:44;94602.75;;;21.65;34.22
43217;BME280;71549;42.686;23.300;2024-03-06T06:35:47;94605.25;;;21.58;33.93
43217;BME280;71549;42.686;23.300;2024-03-06T06:37:49;94594.25;;;21.51;33.84
43217;BME280;71549;42.686;23.300;2024-03-06T06:39:50;94606.84;;;21.46;34.18
43217;BME280;71549;42.686;23.300;2024-03-06T06:41:54;94596.41;;;21.45;34.23
43217;BME280;71549;42.686;23.300;2024-03-06T06:43:55;94607.53;;;21.43;34.27
43217;BME280;71549;42.686;23.300;2024-03-06T06:45:57;94599.75;;;21.42;34.04
43217;BME280;71549;42.686;23.300;2024-03-06T06:47:59;94605.94;;;21.42;34.06
43217;BME280;71549;42.686;23.300;2024-03-06T06:49:59;94597.53;;;21.44;34.05
43217;BME280;71549;42.686;23.300;2024-03-06T06:52:05;94606.50;;;21.48;34.07
43217;BME280;71549;42.686;23.300;2024-03-06T06:54:07;94608.94;;;21.53;34.21
43217;BME280;71549;42.686;23.300;2024-03-06T06:56:09;94613.09;;;21.51;34.24
43217;BME280;71549;42.686;23.300;2024-03-06T06:58:13;94615.69;;;21.47;34.17
43217;BME280;71549;42.686;23.300;2024-03-06T07:00:15;94611.56;;;21.50;33.82
43217;BME280;71549;42.686;23.300;2024-03-06T07:02:19;94609.53;;;21.46;33.91
43217;BME280;71549;42.686;23.300;2024-03-06T07:04:20;94617.59;;;21.46;34.14
43217;BME280;71549;42.686;23.300;2024-03-06T07:06:22;94622.66;;;21.48;34.09
43217;BME280;71549;42.686;23.300;2024-03-06T07:08:23;94615.69;;;21.47;33.93
43217;BME280;71549;42.686;23.300;2024-03-06T07:10:25;94614.13;;;21.46;33.83
43217;BME280;71549;42.686;23.300;2024-03-06T07:12:26;94617.28;;;21.48;34.01
43217;BME280;71549;42.686;23.300;2024-03-06T07:14:29;94613.44;;;21.49;34.07
43217;BME280;71549;42.686;23.300;2024-03-06T07:16:31;94618.06;;;21.49;34.03
43217;BME280;71549;42.686;23.300;2024-03-06T07:18:33;94617.28;;;21.48;33.92
43217;BME280;71549;42.686;23.300;2024-03-06T07:20:35;94620.75;;;21.49;33.85
43217;BME280;71549;42.686;23.300;2024-03-06T07:22:36;94616.50;;;21.48;33.65
43217;BME280;71549;42.686;23.300;2024-03-06T07:24:38;94611.88;;;21.48;34.07
43217;BME280;71549;42.686;23.300;2024-03-06T07:26:40;94622.66;;;21.48;33.73
43217;BME280;71549;42.686;23.300;2024-03-06T07:28:41;94619.19;;;21.48;34.04
43217;BME280;71549;42.686;23.300;2024-03-06T07:30:44;94613.44;;;21.49;33.69
43217;BME280;71549;42.686;23.300;2024-03-06T07:32:46;94609.97;;;21.49;34.00
43217;BME280;71549;42.686;23.300;2024-03-06T07:34:47;94611.88;;;21.48;33.97
43217;BME280;71549;42.686;23.300;2024-03-06T07:36:49;94608.88;;;21.50;33.76
43217;BME280;71549;42.686;23.300;2024-03-06T07:38:51;94615.03;;;21.50;33.98
43217;BME280;71549;42.686;23.300;2024-03-06T07:40:53;94612.34;;;21.50;33.67
43217;BME280;71549;42.686;23.300;2024-03-06T07:42:54;94607.72;;;21.51;33.77
43217;BME280;71549;42.686;23.300;2024-03-06T07:44:56;94609.97;;;21.49;34.04
43217;BME280;71549;42.686;23.300;2024-03-06T07:46:59;94606.94;;;21.50;33.98
43217;BME280;71549;42.686;23.300;2024-03-06T07:49:01;94611.56;;;21.50;33.68
43217;BME280;71549;42.686;23.300;2024-03-06T07:51:03;94610.41;;;21.51;33.94
43217;BME280;71549;42.686;23.300;2024-03-06T07:53:05;94612.34;;;21.50;33.95
43217;BME280;71549;42.686;23.300;2024-03-06T07:55:07;94613.09;;;21.51;33.94
43217;BME280;71549;42.686;23.300;2024-03-06T07:57:07;94611.19;;;21.51;33.84
43217;BME280;71549;42.686;23.300;2024-03-06T07:59:10;94611.19;;;21.51;33.63
43217;BME280;71549;42.686;23.300;2024-03-06T08:01:12;94610.09;;;21.52;33.94
43217;BME280;71549;42.686;23.300;2024-03-06T08:03:15;94613.88;;;21.51;33.56
43217;BME280;71549;42.686;23.300;2024-03-06T08:05:17;94615.47;;;21.52;33.81
43217;BME280;71549;42.686;23.300;2024-03-06T08:07:19;94612.00;;;21.52;34.06
43217;BME280;71549;42.686;23.300;2024-03-06T08:09:21;94616.25;;;21.53;33.79
43217;BME280;71549;42.686;23.300;2024-03-06T08:11:23;94616.25;;;21.53;33.59
43217;BME280;71549;42.686;23.300;2024-03-06T08:13:25;94620.53;;;21.54;33.97
43217;BME280;71549;42.686;23.300;2024-03-06T08:15:27;94617.03;;;21.53;33.93
43217;BME280;71549;42.686;23.300;2024-03-06T08:17:29;94622.41;;;21.53;33.93
43217;BME280;71549;42.686;23.300;2024-03-06T08:19:33;94625.91;;;21.54;33.79
43217;BME280;71549;42.686;23.300;2024-03-06T08:21:35;94624.31;;;21.53;33.92
43217;BME280;71549;42.686;23.300;2024-03-06T08:23:37;94619.72;;;21.53;33.67
43217;BME280;71549;42.686;23.300;2024-03-06T08:25:39;94619.72;;;21.53;33.60
43217;BME280;71549;42.686;23.300;2024-03-06T08:27:41;94617.03;;;21.53;33.69
43217;BME280;71549;42.686;23.300;2024-03-06T08:29:43;94612.09;;;21.55;33.78
43217;BME280;71549;42.686;23.300;2024-03-06T08:31:45;94619.06;;;21.56;33.50
43217;BME280;71549;42.686;23.300;2024-03-06T08:33:45;94620.97;;;21.56;33.49
43217;BME280;71549;42.686;23.300;2024-03-06T08:35:48;94616.34;;;21.56;33.61
43217;BME280;71549;42.686;23.300;2024-03-06T08:37:49;94620.59;;;21.57;33.49
43217;BME280;71549;42.686;23.300;2024-03-06T08:39:51;94616.34;;;21.56;33.54
43217;BME280;71549;42.686;23.300;2024-03-06T08:41:53;94615.22;;;21.57;33.69
43217;BME280;71549;42.686;23.300;2024-03-06T08:43:55;94615.22;;;21.57;33.82
43217;BME280;71549;42.686;23.300;2024-03-06T08:45:57;94625.66;;;21.59;33.70
43217;BME280;71549;42.686;23.300;2024-03-06T08:47:59;94617.56;;;21.59;33.74
43217;BME280;71549;42.686;23.300;2024-03-06T08:50:00;94619.50;;;21.58;33.73
43217;BME280;71549;42.686;23.300;2024-03-06T08:52:05;94615.66;;;21.59;33.73
43217;BME280;71549;42.686;23.300;2024-03-06T08:54:07;94619.16;;;21.60;33.80
43217;BME280;71549;42.686;23.300;2024-03-06T08:56:10;94618.34;;;21.59;33.76
43217;BME280;71549;42.686;23.300;2024-03-06T08:58:12;94608.38;;;21.60;33.73
43217;BME280;71549;42.686;23.300;2024-03-06T09:00:15;94612.63;;;21.61;33.47
43217;BME280;71549;42.686;23.300;2024-03-06T09:02:18;94622.63;;;21.60;33.46
43217;BME280;71549;42.686;23.300;2024-03-06T09:04:20;94617.25;;;21.60;33.42
43217;BME280;71549;42.686;23.300;2024-03-06T09:06:22;94619.16;;;21.60;33.62
43217;BME280;71549;42.686;23.300;2024-03-06T09:08:25;94624.53;;;21.60;33.59
43217;BME280;71549;42.686;23.300;2024-03-06T09:10:27;94626.88;;;21.61;33.69
43217;BME280;71549;42.686;23.300;2024-03-06T09:12:28;94621.50;;;21.61;33.65
43217;BME280;71549;42.686;23.300;2024-03-06T09:14:30;94623.84;;;21.63;33.47
43217;BME280;71549;42.686;23.300;2024-03-06T09:16:32;94623.06;;;21.62;33.46
43217;BME280;71549;42.686;23.300;2024-03-06T09:18:33;94610.72;;;21.61;33.81
43217;BME280;71549;42.686;23.300;2024-03-06T09:20:34;94617.69;;;21.62;33.45
43217;BME280;71549;42.686;23.300;2024-03-06T09:22:36;94615.78;;;21.63;33.44
43217;BME280;71549;42.686;23.300;2024-03-06T09:24:38;94621.16;;;21.63;33.52
43217;BME280;71549;42.686;23.300;2024-03-06T09:26:40;94607.69;;;21.63;33.65
43217;BME280;71549;42.686;23.300;2024-03-06T09:28:41;94616.22;;;21.65;33.39
43217;BME280;71549;42.686;23.300;2024-03-06T09:30:43;94615.44;;;21.64;33.37
43217;BME280;71549;42.686;23.300;2024-03-06T09:32:45;94608.47;;;21.63;33.44
43217;BME280;71549;42.686;23.300;2024-03-06T09:34:46;94607.69;;;21.63;33.53
43217;BME280;71549;42.686;23.300;2024-03-06T09:36:48;94603.88;;;21.64;33.50
43217;BME280;71549;42.686;23.300;2024-03-06T09:38:50;94613.53;;;21.65;33.49
43217;BME280;71549;42.686;23.300;2024-03-06T09:40:56;94610.06;;;21.64;33.45
43217;BME280;71549;42.686;23.300;2024-03-06T09:42:58;94613.53;;;21.65;33.42
43217;BME280;71549;42.686;23.300;2024-03-06T09:45:00;94603.53;;;21.65;33.82
43217;BME280;71549;42.686;23.300;2024-03-06T09:47:03;94607.03;;;21.66;33.46
43217;BME280;71549;42.686;23.300;2024-03-06T09:49:04;94607.81;;;21.66;33.47
43217;BME280;71549;42.686;23.300;2024-03-06T09:51:07;94605.09;;;21.66;33.42
43217;BME280;71549;42.686;23.300;2024-03-06T09:53:09;94603.97;;;21.67;33.37
43217;BME280;71549;42.686;23.300;2024-03-06T09:55:12;94605.56;;;21.69;33.72
43217;BME280;71549;42.686;23.300;2024-03-06T09:57:16;94597.03;;;21.66;33.37
43217;BME280;71549;42.686;23.300;2024-03-06T09:59:18;94593.19;;;21.67;33.83
43217;BME280;71549;42.686;23.300;2024-03-06T10:01:19;94592.41;;;21.67;33.60
43217;BME280;71549;42.686;23.300;2024-03-06T10:03:21;94587.81;;;21.67;33.83
43217;BME280;71549;42.686;23.300;2024-03-06T10:05:22;94580.53;;;21.68;33.36
43217;BME280;71549;42.686;23.300;2024-03-06T10:07:23;94582.09;;;21.69;33.78
43217;BME280;71549;42.686;23.300;2024-03-06T10:09:27;94581.31;;;21.69;33.38
43217;BME280;71549;42.686;23.300;2024-03-06T10:11:29;94579.38;;;21.69;33.44
43217;BME280;71549;42.686;23.300;2024-03-06T10:13:33;94575.59;;;21.70;33.45
43217;BME280;71549;42.686;23.300;2024-03-06T10:15:35;94563.34;;;21.73;33.37
43217;BME280;71549;42.686;23.300;2024-03-06T10:17:37;94570.38;;;21.77;33.60
43217;BME280;71549;42.686;23.300;2024-03-06T10:19:38;94571.59;;;21.80;33.23
43217;BME280;71549;42.686;23.300;2024-03-06T10:21:40;94566.66;;;21.82;33.24
43217;BME280;71549;42.686;23.300;2024-03-06T10:23:40;94568.56;;;21.81;33.23
43217;BME280;71549;42.686;23.300;2024-03-06T10:25:42;94576.31;;;21.83;33.29
43217;BME280;71549;42.686;23.300;2024-03-06T10:27:44;94559.72;;;21.81;33.52
43217;BME280;71549;42.686;23.300;2024-03-06T10:29:46;94558.13;;;21.80;33.17
43217;BME280;71549;42.686;23.300;2024-03-06T10:31:48;94565.00;;;21.77;33.24
43217;BME280;71549;42.686;23.300;2024-03-06T10:33:50;94560.03;;;21.79;33.43
43217;BME280;71549;42.686;23.300;2024-03-06T10:35:54;94560.81;;;21.80;33.24
43217;BME280;71549;42.686;23.300;2024-03-06T10:37:57;94550.84;;;21.80;33.23